Time;durP1;ratioP1;P1;durP2;ratioP2;P2;SDS_P1;SDS_P2;PMS_P1;PMS_P2;Temp;Humidity;BMP_temperature;BMP_pressure;BME280_temperature;BME280_humidity;BME280_pressure;Samples;Min_cycle;Max_cycle;Signal;HPM_P1;HPM_P2
2024/04/05 00:01:21;;;;;;;0.50;0.50;;;;;;;11.29;61.05;97137.06;4981244;28;20089;-69
2024/04/05 00:03:47;;;;;;;0.50;0.50;;;;;;;11.70;61.05;97194.41;4981581;28;20062;-70
2024/04/05 00:06:13;;;;;;;0.50;0.50;;;;;;;11.70;60.68;97186.06;4965518;28;20062;-69
2024/04/05 00:08:39;;;;;;;0.50;0.50;;;;;;;10.99;65.51;97194.38;4980546;28;20444;-69
2024/04/05 00:11:05;;;;;;;0.60;0.60;;;;;;;11.14;66.09;97196.25;4981014;28;20299;-70
2024/04/05 00:13:30;;;;;;;0.50;0.50;;;;;;;11.27;65.57;97189.34;4980569;28;20429;-69
2024/04/05 00:15:56;;;;;;;0.50;0.50;;;;;;;11.24;64.75;97190.09;4980597;28;20623;-69
2024/04/05 00:18:22;;;;;;;0.50;0.50;;;;;;;11.19;63.67;97182.09;4967900;28;20074;-70
2024/04/05 00:20:48;;;;;;;0.50;0.50;;;;;;;10.99;62.39;97128.69;4983967;28;20069;-69
2024/04/05 00:23:14;;;;;;;0.40;0.40;;;;;;;11.23;62.80;97194.84;4967807;28;20062;-70
2024/04/05 00:25:41;;;;;;;0.50;0.50;;;;;;;11.24;62.77;97190.09;4967800;28;20054;-69
2024/04/05 00:28:07;;;;;;;0.50;0.50;;;;;;;10.83;62.62;97121.69;4983608;28;20451;-68
2024/04/05 00:30:33;;;;;;;0.50;0.50;;;;;;;11.15;63.25;97175.66;4984078;28;20195;-69
2024/04/05 00:32:59;;;;;;;0.50;0.50;;;;;;;10.84;63.93;97170.38;4978183;28;20050;-68
2024/04/05 00:35:25;;;;;;;0.40;0.40;;;;;;;10.81;63.86;97191.31;4983067;28;20063;-68
2024/04/05 00:37:51;;;;;;;0.50;0.50;;;;;;;10.63;64.86;97185.44;4983916;28;20062;-70
2024/04/05 00:40:17;;;;;;;0.50;0.50;;;;;;;10.28;64.71;97110.00;4984148;28;20543;-68
2024/04/05 00:42:43;;;;;;;0.50;0.50;;;;;;;10.76;64.84;97174.19;4968277;28;20145;-71
2024/04/05 00:45:08;;;;;;;0.50;0.50;;;;;;;10.59;64.64;97159.63;4984140;28;20074;-69
2024/04/05 00:47:35;;;;;;;0.50;0.50;;;;;;;10.68;64.75;97176.81;4983693;28;20563;-68
2024/04/05 00:50:04;;;;;;;0.50;0.50;;;;;;;10.42;64.34;97132.41;4983438;28;20058;-68
2024/04/05 00:52:31;;;;;;;0.50;0.50;;;;;;;10.68;64.71;97168.50;4967299;28;20054;-69
2024/04/05 00:54:58;;;;;;;0.43;0.43;;;;;;;10.25;64.68;97110.75;4967266;28;20058;-69
2024/04/05 00:57:24;;;;;;;0.40;0.40;;;;;;;10.38;66.18;97170.31;4983155;28;20062;-67
2024/04/05 00:59:50;;;;;;;0.40;0.40;;;;;;;9.12;71.94;97095.63;4982871;28;20050;-70
2024/04/05 01:02:16;;;;;;;0.40;0.40;;;;;;;9.92;70.82;97190.69;4983326;28;20517;-69
2024/04/05 01:04:42;;;;;;;0.50;0.50;;;;;;;9.86;70.20;97164.47;4982813;28;20058;-70
2024/04/05 01:07:08;;;;;;;0.40;0.40;;;;;;;9.95;69.89;97201.03;4967508;28;20077;-70
2024/04/05 01:09:34;;;;;;;0.40;0.40;;;;;;;9.73;70.63;97190.66;4982695;28;20657;-70
2024/04/05 01:12:00;;;;;;;0.40;0.40;;;;;;;9.76;71.07;97170.56;4982725;28;20058;-70
2024/04/05 01:14:26;;;;;;;0.40;0.40;;;;;;;9.63;70.79;97149.72;4966091;28;20058;-69
2024/04/05 01:16:52;;;;;;;0.50;0.50;;;;;;;9.63;71.33;97154.44;4983174;28;20058;-70
2024/04/05 01:19:19;;;;;;;0.40;0.40;;;;;;;9.47;70.47;97132.38;4984007;28;20054;-69
2024/04/05 01:21:48;;;;;;;0.40;0.40;;;;;;;9.85;70.90;97209.88;4993183;28;20069;-69
2024/04/05 01:24:14;;;;;;;0.40;0.40;;;;;;;9.79;70.40;97188.38;4983544;28;20453;-68
2024/04/05 01:26:40;;;;;;;0.47;0.47;;;;;;;9.76;70.36;97187.16;4967128;28;20162;-69
2024/04/05 01:29:06;;;;;;;0.40;0.40;;;;;;;9.92;71.00;97212.81;4982276;28;20066;-69
2024/04/05 01:31:31;;;;;;;0.40;0.40;;;;;;;9.27;70.58;97089.28;4983117;28;20058;-68
2024/04/05 01:33:57;;;;;;;0.50;0.50;;;;;;;9.44;69.35;97108.22;4982597;28;20065;-70
2024/04/05 01:36:23;;;;;;;0.40;0.40;;;;;;;10.10;68.32;97208.47;4982697;28;20054;-69
2024/04/05 01:38:48;;;;;;;0.43;0.43;;;;;;;9.80;68.65;97176.97;4982578;28;20065;-69
2024/04/05 01:41:14;;;;;;;0.50;0.50;;;;;;;10.07;69.61;97209.22;4982614;28;21201;-69
2024/04/05 01:43:40;;;;;;;0.40;0.40;;;;;;;9.45;69.05;97142.19;4966191;28;20062;-69
2024/04/05 01:46:06;;;;;;;0.40;0.40;;;;;;;10.00;69.36;97208.22;4983039;28;20065;-69
2024/04/05 01:48:31;;;;;;;0.50;0.50;;;;;;;9.94;68.71;97215.22;4966597;28;20058;-69
2024/04/05 01:50:57;;;;;;;0.40;0.40;;;;;;;9.87;69.67;97204.78;4983386;28;20549;-67
2024/04/05 01:53:23;;;;;;;0.40;0.40;;;;;;;10.01;69.15;97202.34;4965973;28;20354;-69
2024/04/05 01:55:49;;;;;;;0.40;0.40;;;;;;;10.04;68.81;97209.09;4979038;28;20113;-68
2024/04/05 01:58:15;;;;;;;0.50;0.50;;;;;;;9.95;69.06;97212.09;4963916;28;20224;-69
2024/04/05 02:00:41;;;;;;;0.40;0.40;;;;;;;9.49;69.83;97149.41;4982723;28;20378;-68
2024/04/05 02:03:06;;;;;;;0.43;0.43;;;;;;;9.88;69.71;97200.84;4982047;28;20322;-69
2024/04/05 02:05:32;;;;;;;0.45;0.45;;;;;;;9.92;69.64;97207.28;4982008;28;20065;-69
2024/04/05 02:07:58;;;;;;;0.40;0.40;;;;;;;9.92;70.07;97203.72;4982276;28;20325;-69
2024/04/05 02:10:23;;;;;;;0.50;0.50;;;;;;;9.94;70.49;97216.00;4981793;28;20088;-69
2024/04/05 02:12:49;;;;;;;0.40;0.40;;;;;;;8.80;73.57;97138.25;4982328;28;20146;-68
2024/04/05 02:15:15;;;;;;;0.40;0.40;;;;;;;9.51;73.11;97213.44;4981544;28;20505;-69
2024/04/05 02:17:41;;;;;;;0.40;0.40;;;;;;;9.50;72.14;97214.59;4982135;28;20050;-69
2024/04/05 02:20:07;;;;;;;0.40;0.40;;;;;;;9.49;72.11;97204.72;4981911;28;20085;-67
2024/04/05 02:22:33;;;;;;;0.40;0.40;;;;;;;9.56;71.73;97213.19;4966061;28;20422;-69
2024/04/05 02:25:00;;;;;;;0.40;0.40;;;;;;;9.57;71.68;97206.47;4982014;28;20065;-69
2024/04/05 02:27:26;;;;;;;0.40;0.40;;;;;;;9.40;71.61;97190.28;4965615;28;20883;-69
2024/04/05 02:29:52;;;;;;;0.40;0.40;;;;;;;9.31;71.87;97170.28;4981450;28;20046;-69
2024/04/05 02:32:17;;;;;;;0.40;0.40;;;;;;;9.52;72.42;97226.09;4981666;28;20109;-70
2024/04/05 02:34:43;;;;;;;0.40;0.40;;;;;;;9.26;72.03;97198.22;4981349;28;20496;-69
2024/04/05 02:37:09;;;;;;;0.40;0.40;;;;;;;9.44;72.87;97202.22;4965565;28;20080;-71
2024/04/05 02:39:34;;;;;;;0.40;0.40;;;;;;;9.47;72.50;97206.25;4981112;28;20065;-70
2024/04/05 02:42:00;;;;;;;0.45;0.45;;;;;;;9.32;72.42;97177.44;4981175;28;20085;-70
2024/04/05 02:44:26;;;;;;;0.40;0.40;;;;;;;9.51;72.37;97210.69;4980836;28;20085;-70
2024/04/05 02:46:52;;;;;;;0.40;0.40;;;;;;;9.57;72.46;97211.19;4981305;28;20130;-69
2024/04/05 02:49:18;;;;;;;0.40;0.40;;;;;;;9.44;71.89;97191.16;4981098;28;20081;-70
2024/04/05 02:51:44;;;;;;;0.40;0.40;;;;;;;9.61;71.87;97223.16;4981665;28;20058;-68
2024/04/05 02:54:10;;;;;;;0.40;0.40;;;;;;;9.51;72.43;97196.84;4981611;28;20531;-69
2024/04/05 02:56:36;;;;;;;0.40;0.40;;;;;;;9.24;72.20;97172.91;4981663;28;20088;-69
2024/04/05 02:59:02;;;;;;;0.40;0.40;;;;;;;9.31;72.74;97224.81;4981196;28;20116;-70
2024/04/05 03:01:27;;;;;;;0.40;0.40;;;;;;;9.43;72.63;97239.31;4978031;28;20058;-69
2024/04/05 03:03:53;;;;;;;0.40;0.40;;;;;;;8.17;77.95;97257.94;4968734;28;20124;-69
2024/04/05 03:06:22;;;;;;;0.40;0.40;;;;;;;8.05;78.28;97238.66;4981660;28;20050;-70
2024/04/05 03:08:48;;;;;;;0.40;0.40;;;;;;;7.67;78.48;97178.44;4981766;28;20058;-70
2024/04/05 03:11:14;;;;;;;0.30;0.30;;;;;;;8.21;78.16;97236.78;4981555;28;20058;-68
2024/04/05 03:13:40;;;;;;;0.40;0.40;;;;;;;7.93;78.27;97186.28;4981316;28;20065;-69
2024/04/05 03:16:06;;;;;;;0.32;0.32;;;;;;;8.44;78.18;97251.69;4981038;28;20058;-70
2024/04/05 03:18:31;;;;;;;0.30;0.30;;;;;;;8.60;78.41;97222.16;4981103;28;20073;-69
2024/04/05 03:20:58;;;;;;;0.40;0.40;;;;;;;8.72;77.49;97235.91;4981147;28;20061;-69
2024/04/05 03:23:23;;;;;;;0.32;0.32;;;;;;;8.49;79.21;97241.19;4980660;28;20062;-69
2024/04/05 03:25:49;;;;;;;0.38;0.38;;;;;;;7.96;79.28;97185.59;4964773;28;20065;-69
2024/04/05 03:28:15;;;;;;;0.40;0.40;;;;;;;8.02;78.73;97178.66;4981099;28;20080;-70
2024/04/05 03:30:41;;;;;;;0.40;0.40;;;;;;;8.66;78.39;97248.34;4981047;28;20066;-69
2024/04/05 03:33:07;;;;;;;0.40;0.40;;;;;;;8.64;77.81;97250.66;4964658;28;20054;-69
2024/04/05 03:35:42;;;;;;;0.40;0.40;;;;;;;8.48;77.63;97222.22;4980646;28;20172;-69
2024/04/05 03:38:07;;;;;;;0.40;0.40;;;;;;;8.86;77.67;97247.31;4980870;28;20051;-70
2024/04/05 03:40:38;;;;;;;0.40;0.40;;;;;;;7.95;76.86;97118.59;4980973;28;20058;-68
2024/04/05 03:43:06;;;;;;;0.40;0.40;;;;;;;8.89;77.56;97252.94;4981093;28;20058;-69
2024/04/05 03:45:32;;;;;;;0.40;0.40;;;;;;;8.94;77.34;97254.63;4981172;28;20054;-69
2024/04/05 03:47:57;;;;;;;0.40;0.40;;;;;;;8.27;78.01;97152.59;4981316;28;20466;-69
2024/04/05 03:50:23;;;;;;;0.40;0.40;;;;;;;9.07;77.76;97264.47;4964848;28;20410;-70
2024/04/05 03:52:49;;;;;;;0.40;0.40;;;;;;;8.77;76.34;97194.22;4967599;28;20061;-70
2024/04/05 03:55:15;;;;;;;0.50;0.50;;;;;;;9.28;75.73;97264.22;4984403;28;20504;-71
2024/04/05 03:57:42;;;;;;;0.40;0.40;;;;;;;9.35;76.01;97265.19;4968861;28;20053;-68
2024/04/05 04:00:09;;;;;;;0.40;0.40;;;;;;;9.44;74.95;97282.38;4968436;28;20148;-70
2024/04/05 04:02:35;;;;;;;0.40;0.40;;;;;;;9.10;75.45;97263.75;4984045;28;20436;-72
2024/04/05 04:05:01;;;;;;;0.35;0.35;;;;;;;9.08;76.38;97283.44;4984444;28;20089;-69
2024/04/05 04:07:26;;;;;;;0.40;0.40;;;;;;;8.36;76.46;97172.59;4968603;28;20058;-71
2024/04/05 04:09:52;;;;;;;0.40;0.40;;;;;;;8.84;78.14;97280.81;4984399;28;20536;-70
2024/04/05 04:12:18;;;;;;;0.40;0.40;;;;;;;9.10;77.59;97274.81;4984256;28;20058;-70
2024/04/05 04:14:44;;;;;;;0.40;0.40;;;;;;;9.28;76.48;97278.03;4967678;28;20517;-70
2024/04/05 04:17:10;;;;;;;0.40;0.40;;;;;;;9.47;75.72;97289.19;4983933;28;20137;-71
2024/04/05 04:19:36;;;;;;;0.47;0.47;;;;;;;9.60;75.08;97299.78;4983668;28;20092;-71
2024/04/05 04:22:02;;;;;;;0.45;0.45;;;;;;;9.77;74.31;97293.09;4967884;28;20054;-72
2024/04/05 04:24:29;;;;;;;0.40;0.40;;;;;;;9.47;74.15;97231.91;4983998;28;20141;-70
2024/04/05 04:26:56;;;;;;;0.40;0.40;;;;;;;9.57;73.36;97212.00;4983865;28;20050;-70
2024/04/05 04:29:22;;;;;;;0.40;0.40;;;;;;;10.18;72.06;97298.03;4983999;28;20568;-71
2024/04/05 04:31:48;;;;;;;0.40;0.40;;;;;;;9.67;72.04;97227.25;4984593;28;20570;-70
2024/04/05 04:34:13;;;;;;;0.40;0.40;;;;;;;10.32;71.61;97293.59;4984336;28;20317;-70
2024/04/05 04:36:39;;;;;;;0.40;0.40;;;;;;;9.72;71.42;97247.13;4984239;28;20150;-70
2024/04/05 04:39:08;;;;;;;0.50;0.50;;;;;;;10.13;71.27;97249.28;4984218;28;20136;-71
2024/04/05 04:41:37;;;;;;;0.50;0.50;;;;;;;10.37;71.02;97271.16;4983909;28;20532;-71
2024/04/05 04:44:03;;;;;;;0.47;0.47;;;;;;;10.64;70.67;97275.69;4983757;28;20057;-71
2024/04/05 04:46:29;;;;;;;0.50;0.50;;;;;;;10.02;72.68;97234.38;4983388;28;20156;-70
2024/04/05 04:48:57;;;;;;;0.50;0.50;;;;;;;10.59;71.19;97298.13;4967439;28;20050;-71
2024/04/05 04:51:23;;;;;;;0.50;0.50;;;;;;;10.70;71.69;97303.91;4983079;28;20062;-69
2024/04/05 04:53:48;;;;;;;0.40;0.40;;;;;;;10.67;69.69;97257.53;4983588;28;20608;-72
2024/04/05 04:56:16;;;;;;;0.50;0.50;;;;;;;10.34;72.69;97305.13;4983772;28;20054;-58
2024/04/05 04:58:42;;;;;;;0.50;0.50;;;;;;;10.76;71.41;97345.97;4982892;28;20077;-58
2024/04/05 05:01:07;;;;;;;0.60;0.60;;;;;;;11.07;70.76;97307.00;4828806;28;5001713;-58
2024/04/05 05:03:35;;;;;;;0.50;0.50;;;;;;;9.45;69.77;97032.41;4981913;28;20229;-58
2024/04/05 05:06:00;;;;;;;0.50;0.50;;;;;;;11.44;69.14;97294.22;4965152;28;20567;-68
2024/04/05 05:08:28;;;;;;;0.50;0.50;;;;;;;11.56;68.17;97280.16;4982761;28;20133;-58
2024/04/05 05:10:53;;;;;;;0.50;0.50;;;;;;;10.29;69.46;97117.13;4999649;28;20060;-61
2024/04/05 05:13:19;;;;;;;0.50;0.50;;;;;;;12.04;68.80;97307.16;4999299;28;20429;-63
2024/04/05 05:15:45;;;;;;;0.50;0.50;;;;;;;12.29;68.09;97307.53;4982944;28;20949;-59
2024/04/05 05:18:11;;;;;;;0.50;0.50;;;;;;;12.41;66.74;97316.44;4982388;28;20496;-59
2024/04/05 05:20:45;;;;;;;0.50;0.50;;;;;;;12.33;66.59;97259.16;4982501;28;20054;-67
2024/04/05 05:23:11;;;;;;;0.60;0.60;;;;;;;12.80;65.49;97305.84;4965514;28;20545;-59
2024/04/05 05:25:37;;;;;;;0.50;0.50;;;;;;;12.82;66.72;97315.41;4965919;28;20064;-61
2024/04/05 05:28:04;;;;;;;0.60;0.60;;;;;;;12.89;66.97;97315.50;4988019;28;20112;-58
2024/04/05 05:30:30;;;;;;;0.55;0.55;;;;;;;12.52;68.00;97272.13;4981606;28;20611;-65
2024/04/05 05:32:56;;;;;;;0.60;0.60;;;;;;;10.35;67.31;96894.16;4981414;28;20061;-59
2024/04/05 05:35:23;;;;;;;0.55;0.55;;;;;;;13.31;66.70;97304.88;4980150;28;20050;-70
2024/04/05 05:37:50;;;;;;;0.60;0.60;;;;;;;13.80;64.84;97318.47;4980435;28;20496;-64
2024/04/05 05:40:16;;;;;;;0.60;0.60;;;;;;;13.95;63.30;97288.75;4980287;28;20102;-62
2024/04/05 05:42:41;;;;;;;0.60;0.60;;;;;;;14.49;62.43;97313.84;4984584;28;20067;-69
2024/04/05 05:45:07;;;;;;;0.60;0.60;;;;;;;14.76;61.01;97312.41;4972303;28;20048;-65
2024/04/05 05:47:33;;;;;;;0.60;0.60;;;;;;;14.01;63.87;97281.63;4981728;28;20062;-58
2024/04/05 05:49:59;;;;;;;0.70;0.70;;;;;;;14.31;65.67;97307.34;4981244;28;20527;-62
2024/04/05 05:52:24;;;;;;;0.60;0.60;;;;;;;14.07;68.34;97314.31;4963660;28;20120;-62
2024/04/05 05:54:51;;;;;;;0.70;0.70;;;;;;;14.23;68.46;97305.66;4994341;28;20185;-60
2024/04/05 05:57:17;;;;;;;0.60;0.60;;;;;;;14.70;65.74;97303.59;4981934;28;20062;-61
2024/04/05 05:59:43;;;;;;;0.70;0.70;;;;;;;14.85;64.33;97310.06;4980839;28;20068;-66
2024/04/05 06:02:08;;;;;;;0.60;0.60;;;;;;;12.85;64.53;96981.03;4982190;28;20062;-77
2024/04/05 06:04:34;;;;;;;0.60;0.60;;;;;;;15.31;62.27;97310.22;4992015;28;20065;-60
2024/04/05 06:07:00;;;;;;;0.70;0.70;;;;;;;15.43;61.75;97252.06;4972725;28;20148;-61
2024/04/05 06:09:28;;;;;;;0.60;0.60;;;;;;;16.02;58.49;97262.47;4981496;28;20633;-70
2024/04/05 06:11:54;;;;;;;0.70;0.70;;;;;;;15.74;54.76;97228.16;4997163;28;20537;-66
2024/04/05 06:14:20;;;;;;;0.70;0.70;;;;;;;16.25;55.68;97309.53;4981448;28;20485;-63
2024/04/05 06:16:48;;;;;;;0.70;0.70;;;;;;;16.68;54.75;97285.16;4981015;28;20046;-68
2024/04/05 06:19:14;;;;;;;0.70;0.70;;;;;;;17.35;53.07;97311.66;5014899;28;20061;-62
2024/04/05 06:21:40;;;;;;;0.80;0.80;;;;;;;17.10;51.72;97212.19;4980092;28;20397;-61
2024/04/05 06:24:06;;;;;;;0.80;0.80;;;;;;;17.80;50.29;97270.56;5013658;28;20050;-61
2024/04/05 06:26:35;;;;;;;0.80;0.80;;;;;;;16.27;49.60;97000.44;4983769;28;20068;-60
2024/04/05 06:29:02;;;;;;;0.80;0.80;;;;;;;18.68;48.79;97309.88;4994278;28;20050;-70
2024/04/05 06:31:28;;;;;;;0.77;0.77;;;;;;;19.12;47.33;97314.56;4973238;28;20050;-65
2024/04/05 06:33:55;;;;;;;0.98;0.98;;;;;;;19.27;48.45;97313.97;4980082;28;20050;-61
2024/04/05 06:36:21;;;;;;;0.90;0.90;;;;;;;19.62;48.17;97314.75;4964680;28;20058;-61
2024/04/05 06:38:47;;;;;;;0.90;0.90;;;;;;;19.82;48.02;97318.47;4979129;28;20137;-63
2024/04/05 06:41:12;;;;;;;1.00;1.00;;;;;;;20.02;46.81;97322.16;4980536;28;20850;-62
2024/04/05 06:43:38;;;;;;;0.90;0.90;;;;;;;20.27;46.11;97319.78;4976820;28;20077;-58
2024/04/05 06:46:04;;;;;;;0.90;0.90;;;;;;;20.59;45.13;97309.59;4980477;28;20096;-67
2024/04/05 06:48:34;;;;;;;0.90;0.90;;;;;;;20.83;44.03;97318.78;4980145;28;20548;-65
2024/04/05 06:51:00;;;;;;;0.80;0.80;;;;;;;21.14;43.29;97317.41;4980871;28;20101;-60
2024/04/05 06:53:29;;;;;;;1.00;1.00;;;;;;;21.48;42.92;97315.06;4981284;28;20089;-63
2024/04/05 06:55:55;;;;;;;0.90;0.90;;;;;;;21.65;41.96;97319.53;4981642;28;20058;-65
2024/04/05 06:58:22;;;;;;;0.90;0.90;;;;;;;21.86;41.19;97307.78;4981130;28;20108;-68
2024/04/05 07:00:49;;;;;;;0.90;0.90;;;;;;;22.20;40.31;97316.66;4997803;28;20465;-61
2024/04/05 07:03:15;;;;;;;0.90;0.90;;;;;;;21.83;39.92;97308.69;4963353;28;20065;-60
2024/04/05 07:05:41;;;;;;;0.98;0.98;;;;;;;22.01;39.50;97309.06;4996043;28;20058;-62
2024/04/05 07:08:08;;;;;;;0.98;0.98;;;;;;;21.50;38.83;97332.34;4979212;28;20112;-66
2024/04/05 07:10:36;;;;;;;1.00;1.00;;;;;;;21.14;38.74;97261.06;4994314;28;20656;-66
2024/04/05 07:13:02;;;;;;;0.90;0.90;;;;;;;21.03;39.32;97333.72;4961698;28;20093;-69
2024/04/05 07:15:28;;;;;;;0.90;0.90;;;;;;;21.24;39.46;97338.94;4979231;28;20054;-63
2024/04/05 07:17:55;;;;;;;0.95;0.95;;;;;;;21.37;38.87;97342.69;4978161;28;20590;-71
2024/04/05 07:20:24;;;;;;;0.80;0.80;;;;;;;20.94;39.79;97342.69;4979278;28;20536;-61
2024/04/05 07:22:52;;;;;;;1.00;1.00;;;;;;;21.14;39.58;97306.13;4963118;28;20081;-59
2024/04/05 07:25:23;;;;;;;0.90;0.90;;;;;;;21.37;39.12;97337.03;4993724;28;20524;-60
2024/04/05 07:27:54;;;;;;;0.90;0.90;;;;;;;21.35;38.49;97339.53;4983633;28;20054;-67
2024/04/05 07:30:23;;;;;;;0.80;0.80;;;;;;;21.24;38.66;97341.75;5012330;28;20054;-60
2024/04/05 07:32:50;;;;;;;0.90;0.90;;;;;;;19.58;39.33;97165.03;4980134;28;20073;-64
2024/04/05 07:35:17;;;;;;;0.80;0.80;;;;;;;21.04;39.85;97352.19;4964141;28;20579;-63
2024/04/05 07:37:46;;;;;;;0.88;0.88;;;;;;;20.77;39.53;97348.69;4965467;28;20061;-67
2024/04/05 07:40:27;;;;;;;0.77;0.77;;;;;;;20.78;39.64;97339.00;4980772;28;20069;-67
2024/04/05 07:42:54;;;;;;;0.80;0.80;;;;;;;21.02;39.72;97342.59;4965234;28;20050;-60
2024/04/05 07:45:22;;;;;;;0.80;0.80;;;;;;;21.35;39.33;97339.53;4980383;28;20727;-65
2024/04/05 07:47:51;;;;;;;0.93;0.93;;;;;;;21.77;38.30;97337.84;4980776;28;20089;-62
2024/04/05 07:50:19;;;;;;;0.90;0.90;;;;;;;21.75;38.02;97346.72;4980047;28;20120;-62
2024/04/05 07:52:46;;;;;;;0.90;0.90;;;;;;;21.57;37.78;97340.66;4963820;28;20488;-65
2024/04/05 07:55:13;;;;;;;1.05;1.05;;;;;;;19.70;38.37;97043.56;4979038;28;20057;-66
2024/04/05 07:57:41;;;;;;;0.90;0.90;;;;;;;21.76;38.72;97348.34;4979562;28;20061;-66
2024/04/05 08:00:13;;;;;;;0.90;0.90;;;;;;;21.46;39.13;97342.91;4995517;28;20061;-60
2024/04/05 08:02:49;;;;;;;0.90;0.90;;;;;;;21.34;37.95;97360.47;4980778;28;20058;-60
2024/04/05 08:05:16;;;;;;;0.90;0.90;;;;;;;21.27;38.64;97365.47;4978732;28;20054;-61
2024/04/05 08:07:43;;;;;;;0.90;0.90;;;;;;;21.45;37.95;97366.69;4979379;28;20708;-67
2024/04/05 08:10:09;;;;;;;0.90;0.90;;;;;;;21.47;38.25;97364.22;4979312;28;20109;-60
2024/04/05 08:12:36;;;;;;;0.90;0.90;;;;;;;21.13;37.75;97332.72;4979262;28;20537;-66
2024/04/05 08:15:03;;;;;;;0.90;0.90;;;;;;;20.75;38.27;97339.88;4963770;28;20050;-67
2024/04/05 08:17:29;;;;;;;1.00;1.00;;;;;;;20.87;38.14;97375.84;4980943;28;20413;-67
2024/04/05 08:19:54;;;;;;;0.90;0.90;;;;;;;20.56;38.14;97315.28;4979692;28;20054;-66
2024/04/05 08:22:20;;;;;;;0.90;0.90;;;;;;;20.77;38.27;97365.59;4980829;28;20096;-66
2024/04/05 08:24:46;;;;;;;0.90;0.90;;;;;;;20.72;38.09;97363.25;4978111;28;20309;-61
2024/04/05 08:27:12;;;;;;;0.90;0.90;;;;;;;20.38;38.65;97326.03;4980943;28;20046;-62
2024/04/05 08:29:38;;;;;;;0.90;0.90;;;;;;;20.73;38.10;97371.28;4982093;28;20173;-63
2024/04/05 08:32:05;;;;;;;0.82;0.82;;;;;;;20.71;38.54;97372.91;4993248;28;20089;-60
2024/04/05 08:34:31;;;;;;;0.90;0.90;;;;;;;20.80;38.50;97361.91;4987190;28;20059;-59
2024/04/05 08:36:58;;;;;;;1.00;1.00;;;;;;;20.71;38.57;97378.53;4990392;28;20238;-68
2024/04/05 08:39:23;;;;;;;0.93;0.93;;;;;;;20.86;38.60;97365.81;5008219;28;20077;-63
2024/04/05 08:41:50;;;;;;;1.02;1.02;;;;;;;20.84;38.76;97348.53;4982991;28;20058;-64
2024/04/05 08:44:17;;;;;;;0.80;0.80;;;;;;;21.17;38.73;97361.63;4964951;28;20054;-67
2024/04/05 08:46:43;;;;;;;0.90;0.90;;;;;;;21.17;38.37;97361.63;4982087;28;20059;-58
2024/04/05 08:49:16;;;;;;;0.80;0.80;;;;;;;21.15;38.85;97369.69;4982666;28;20238;-61
2024/04/05 08:51:42;;;;;;;1.00;1.00;;;;;;;21.37;38.76;97368.03;4987203;28;20054;-61
2024/04/05 08:54:07;;;;;;;0.85;0.85;;;;;;;20.87;37.87;97308.25;4988811;28;20119;-73
2024/04/05 08:56:34;;;;;;;0.90;0.90;;;;;;;20.74;37.85;97312.91;4982651;28;20054;-62
2024/04/05 08:59:02;;;;;;;1.00;1.00;;;;;;;20.96;38.36;97357.19;4982495;28;20054;-60
2024/04/05 09:01:28;;;;;;;0.85;0.85;;;;;;;20.59;38.56;97305.97;4981085;28;20054;-59
2024/04/05 09:03:54;;;;;;;0.90;0.90;;;;;;;20.51;38.11;97270.72;4980672;28;20050;-59
2024/04/05 09:06:21;;;;;;;0.93;0.93;;;;;;;21.19;37.80;97362.00;4984812;28;20211;-68
2024/04/05 09:08:50;;;;;;;1.00;1.00;;;;;;;21.22;38.10;97369.56;4981713;28;20051;-60
2024/04/05 09:11:19;;;;;;;0.93;0.93;;;;;;;21.04;37.94;97357.84;4981980;28;20505;-64
2024/04/05 09:14:04;;;;;;;1.00;1.00;;;;;;;21.07;38.17;97384.38;5009676;28;20051;-66
2024/04/05 09:16:31;;;;;;;0.90;0.90;;;;;;;21.32;38.25;97362.94;4981861;28;20561;-64
2024/04/05 09:19:08;;;;;;;0.90;0.90;;;;;;;21.36;37.17;97358.00;4981515;28;20053;-64
2024/04/05 09:21:34;;;;;;;0.90;0.90;;;;;;;21.50;37.23;97366.19;4982065;28;20062;-65
2024/04/05 09:24:04;;;;;;;0.90;0.90;;;;;;;21.45;37.26;97349.75;4981354;28;20050;-59
2024/04/05 09:26:30;;;;;;;1.00;1.00;;;;;;;21.70;37.27;97355.69;4982472;28;20061;-65
2024/04/05 09:29:03;;;;;;;0.80;0.80;;;;;;;21.85;36.92;97362.63;4979683;28;20047;-64
2024/04/05 09:31:30;;;;;;;0.90;0.90;;;;;;;21.69;37.11;97371.00;4979424;28;20051;-59
2024/04/05 09:34:10;;;;;;;0.80;0.80;;;;;;;21.91;37.25;97389.09;4985282;28;20073;-59
2024/04/05 09:36:37;;;;;;;1.00;1.00;;;;;;;22.09;37.25;97360.47;4966419;28;20807;-65
2024/04/05 09:39:13;;;;;;;0.90;0.90;;;;;;;22.38;36.61;97362.19;4966777;28;20058;-59
2024/04/05 09:41:40;;;;;;;0.90;0.90;;;;;;;22.42;36.67;97348.78;4982878;28;20062;-65
2024/04/05 09:44:07;;;;;;;0.90;0.90;;;;;;;22.59;36.53;97362.94;4982788;28;20066;-66
2024/04/05 09:46:35;;;;;;;1.00;1.00;;;;;;;22.45;36.31;97345.09;4966892;28;20046;-64
2024/04/05 09:49:05;;;;;;;1.00;1.00;;;;;;;22.81;35.81;97361.16;4982740;28;20050;-60
2024/04/05 09:51:48;;;;;;;1.00;1.00;;;;;;;23.03;35.48;97362.19;4982564;28;20061;-64
2024/04/05 09:54:19;;;;;;;0.95;0.95;;;;;;;22.93;36.05;97358.41;5014693;28;20132;-64
2024/04/05 09:56:45;;;;;;;1.00;1.00;;;;;;;22.78;36.24;97373.34;4982411;28;20497;-62
2024/04/05 09:59:30;;;;;;;1.00;1.00;;;;;;;22.21;35.59;97323.88;4981623;28;20058;-70
2024/04/05 10:01:56;;;;;;;0.98;0.98;;;;;;;22.12;36.56;97326.53;4981744;28;20057;-64
2024/04/05 10:04:22;;;;;;;0.90;0.90;;;;;;;22.37;36.42;97371.09;4980860;28;20050;-64
2024/04/05 10:06:49;;;;;;;1.00;1.00;;;;;;;22.34;36.29;97363.50;4991931;28;20072;-60
2024/04/05 10:09:21;;;;;;;0.90;0.90;;;;;;;22.41;36.28;97374.63;4980011;28;20050;-64
2024/04/05 10:11:52;;;;;;;1.00;1.00;;;;;;;22.23;35.85;97337.56;4977213;28;20061;-68
2024/04/05 10:14:21;;;;;;;0.98;0.98;;;;;;;22.20;36.05;97321.50;5012938;28;20516;-61
2024/04/05 10:16:51;;;;;;;1.10;1.10;;;;;;;22.62;36.67;97364.88;4981635;28;20561;-62
2024/04/05 10:19:18;;;;;;;1.00;1.00;;;;;;;22.59;35.57;97352.41;4965824;28;20105;-67
2024/04/05 10:21:45;;;;;;;0.95;0.95;;;;;;;22.71;35.11;97367.88;4982056;28;20058;-70
2024/04/05 10:24:12;;;;;;;1.00;1.00;;;;;;;22.72;35.86;97364.59;4981709;28;20050;-69
2024/04/05 10:26:50;;;;;;;1.00;1.00;;;;;;;22.84;34.73;97349.75;4981977;28;20096;-68
2024/04/05 10:29:16;;;;;;;1.00;1.00;;;;;;;22.84;35.52;97365.91;4982223;28;20058;-60
2024/04/05 10:31:42;;;;;;;1.00;1.00;;;;;;;22.93;34.76;97368.91;4982094;28;20481;-65
2024/04/05 10:34:08;;;;;;;0.90;0.90;;;;;;;22.91;35.10;97366.53;4981639;28;20050;-59
2024/04/05 10:36:37;;;;;;;1.10;1.10;;;;;;;22.90;33.65;97369.78;4982110;28;20057;-59
2024/04/05 10:39:17;;;;;;;0.90;0.90;;;;;;;22.93;34.55;97374.56;4980581;28;20046;-62
2024/04/05 10:41:43;;;;;;;1.00;1.00;;;;;;;22.78;34.45;97374.13;4965271;28;20069;-65
2024/04/05 10:44:09;;;;;;;1.10;1.10;;;;;;;22.25;34.67;97284.28;4974451;28;20069;-65
2024/04/05 10:46:45;;;;;;;0.90;0.90;;;;;;;22.74;34.94;97366.97;4952281;28;20085;-64
2024/04/05 10:49:11;;;;;;;0.93;0.93;;;;;;;22.76;34.52;97364.50;4961868;28;20062;-63
2024/04/05 10:51:37;;;;;;;1.00;1.00;;;;;;;22.62;35.17;97364.88;4961163;28;20065;-58
2024/04/05 10:54:10;;;;;;;1.00;1.00;;;;;;;22.35;35.56;97309.44;4961718;28;20054;-65
2024/04/05 10:56:40;;;;;;;0.88;0.88;;;;;;;22.72;35.28;97364.59;4961308;28;20125;-61
2024/04/05 10:59:07;;;;;;;1.10;1.10;;;;;;;22.74;35.51;97328.25;4961723;28;20065;-61
2024/04/05 11:01:37;;;;;;;1.00;1.00;;;;;;;22.86;34.99;97354.97;4960711;28;20054;-60
2024/04/05 11:04:04;;;;;;;1.15;1.15;;;;;;;21.84;35.06;97174.88;4957733;28;20059;-68
2024/04/05 11:06:31;;;;;;;0.95;0.95;;;;;;;23.12;34.37;97359.50;4961172;28;20061;-63
2024/04/05 11:08:57;;;;;;;0.98;0.98;;;;;;;22.93;34.51;97340.66;4945180;28;20082;-63
2024/04/05 11:11:23;;;;;;;1.00;1.00;;;;;;;22.43;34.87;97358.03;4950171;28;20099;-64
2024/04/05 11:13:59;;;;;;;1.00;1.00;;;;;;;22.57;34.33;97312.56;4961246;28;20054;-69
2024/04/05 11:16:25;;;;;;;1.00;1.00;;;;;;;23.14;34.89;97359.88;4961188;28;20069;-62
2024/04/05 11:18:51;;;;;;;1.00;1.00;;;;;;;23.10;35.15;97350.66;4960474;28;20058;-67
2024/04/05 11:21:17;;;;;;;0.98;0.98;;;;;;;23.19;34.88;97345.97;4960736;28;20051;-61
2024/04/05 11:23:54;;;;;;;0.90;0.90;;;;;;;23.20;33.78;97350.41;4961168;28;20058;-67
2024/04/05 11:26:23;;;;;;;1.10;1.10;;;;;;;23.63;33.67;97339.47;4960852;28;20442;-66
2024/04/05 11:28:49;;;;;;;1.10;1.10;;;;;;;23.69;34.17;97342.53;4961101;28;20109;-61
2024/04/05 11:31:15;;;;;;;0.93;0.93;;;;;;;22.98;34.73;97354.25;4977857;28;20059;-60
2024/04/05 11:33:41;;;;;;;1.00;1.00;;;;;;;23.66;33.06;97343.44;4958947;28;20066;-66
2024/04/05 11:36:08;;;;;;;1.08;1.08;;;;;;;23.58;33.01;97353.38;4944205;28;20054;-62